Time;durP1;ratioP1;P1;durP2;ratioP2;P2;SDS_P1;SDS_P2;PMS_P1;PMS_P2;Temp;Humidity;BMP_temperature;BMP_pressure;BME280_temperature;BME280_humidity;BME280_pressure;Samples;Min_cycle;Max_cycle;Signal;HPM_P1;HPM_P2
2021/06/05 00:01:50;;;;;;;12.82;8.27;;;;;;;;;;5013417;28;20050;-90
2021/06/05 00:04:19;;;;;;;10.73;7.50;;;;;;;;;;5013676;28;20058;-89
2021/06/05 00:06:49;;;;;;;10.63;7.03;;;;;;;;;;5012774;28;20129;-89
2021/06/05 00:09:21;;;;;;;11.02;6.80;;;;;;;;;;5009655;28;20383;-90
2021/06/05 00:11:51;;;;;;;9.27;6.88;;;;;;;;;;4994160;28;20450;-90
2021/06/05 00:14:19;;;;;;;11.00;7.00;;;;;;;;;;4994396;28;20170;-90
2021/06/05 00:16:49;;;;;;;8.18;6.90;;;;;;;;;;5009064;28;20070;-90
2021/06/05 00:19:19;;;;;;;10.70;7.07;;;;;;;;;;5013738;28;20133;-90
2021/06/05 00:21:48;;;;;;;9.07;6.78;;;;;;;;;;5013611;28;20061;-90
2021/06/05 00:24:17;;;;;;;10.35;7.28;;;;;;;;;;5013340;28;20049;-90
2021/06/05 00:26:45;;;;;;;9.95;7.07;;;;;;;;;;5013110;28;20132;-90
2021/06/05 00:29:25;;;;;;;9.25;6.97;;;;;;;;;;5014226;28;20054;-92
2021/06/05 00:31:53;;;;;;;8.05;6.90;;;;;;;;;;5013538;28;20050;-90
2021/06/05 00:34:22;;;;;;;9.95;6.88;;;;;;;;;;5048673;28;20123;-90
2021/06/05 00:36:50;;;;;;;8.68;7.13;;;;;;;;;;5052349;28;20459;-90
2021/06/05 00:39:18;;;;;;;9.43;7.13;;;;;;;;;;5053460;28;20099;-90
2021/06/05 00:41:46;;;;;;;9.13;6.82;;;;;;;;;;5053431;28;20095;-90
2021/06/05 00:44:18;;;;;;;9.63;7.55;;;;;;;;;;5053140;28;20064;-90
2021/06/05 00:46:47;;;;;;;9.40;6.93;;;;;;;;;;5052501;28;20053;-90
2021/06/05 00:49:15;;;;;;;8.23;6.88;;;;;;;;;;5052599;28;20060;-91
2021/06/05 00:51:45;;;;;;;7.63;6.43;;;;;;;;;;5052776;28;20049;-90
2021/06/05 00:54:14;;;;;;;9.32;7.90;;;;;;;;;;5052762;28;20136;-90
2021/06/05 00:56:43;;;;;;;8.98;7.07;;;;;;;;;;5052274;28;20049;-91
2021/06/05 00:59:12;;;;;;;12.88;7.60;;;;;;;;;;5052335;28;20152;-90
2021/06/05 01:01:41;;;;;;;9.73;7.55;;;;;;;;;;5052954;28;20063;-90
2021/06/05 01:04:10;;;;;;;9.15;7.35;;;;;;;;;;5051502;28;20144;-90
2021/06/05 01:06:40;;;;;;;8.93;7.40;;;;;;;;;;5050538;28;20045;-90
2021/06/05 01:09:14;;;;;;;9.52;7.32;;;;;;;;;;5052301;28;20057;-89
2021/06/05 01:11:46;;;;;;;10.73;7.68;;;;;;;;;;5052171;28;20044;-90
2021/06/05 01:14:18;;;;;;;8.98;7.65;;;;;;;;;;5052720;28;20548;-89
2021/06/05 01:16:49;;;;;;;9.05;6.97;;;;;;;;;;5051378;28;20139;-90
2021/06/05 01:19:27;;;;;;;10.05;7.47;;;;;;;;;;5053668;28;20064;-89
2021/06/05 01:22:09;;;;;;;9.45;6.57;;;;;;;;;;5050378;28;20140;-91
2021/06/05 01:24:45;;;;;;;10.82;7.43;;;;;;;;;;5052229;28;20115;-90
2021/06/05 01:27:19;;;;;;;8.25;6.80;;;;;;;;;;5050270;28;20099;-91
2021/06/05 01:29:49;;;;;;;12.18;7.85;;;;;;;;;;5052156;28;20484;-90
2021/06/05 01:32:18;;;;;;;10.25;7.78;;;;;;;;;;5051959;28;20351;-90
2021/06/05 01:34:49;;;;;;;9.35;6.85;;;;;;;;;;5052181;28;20505;-90
2021/06/05 01:37:18;;;;;;;9.93;7.07;;;;;;;;;;5050321;28;20159;-89
2021/06/05 01:39:48;;;;;;;10.50;6.97;;;;;;;;;;5052072;28;20408;-90
2021/06/05 01:42:19;;;;;;;10.20;6.68;;;;;;;;;;5050885;28;20077;-90
2021/06/05 01:44:50;;;;;;;7.25;6.50;;;;;;;;;;5052253;28;20044;-89
2021/06/05 01:47:18;;;;;;;8.77;6.80;;;;;;;;;;5051083;28;20048;-90
2021/06/05 01:49:47;;;;;;;7.57;6.78;;;;;;;;;;5052167;28;20063;-89
2021/06/05 01:52:21;;;;;;;7.97;6.78;;;;;;;;;;5051527;28;20115;-90
2021/06/05 01:54:54;;;;;;;8.45;6.93;;;;;;;;;;5051993;28;20073;-90
2021/06/05 01:57:26;;;;;;;8.82;7.13;;;;;;;;;;5051085;28;20050;-90
2021/06/05 01:59:54;;;;;;;8.43;6.95;;;;;;;;;;5051564;28;20055;-90
2021/06/05 02:02:22;;;;;;;8.07;6.75;;;;;;;;;;5051916;28;20053;-89
2021/06/05 02:04:52;;;;;;;7.75;6.57;;;;;;;;;;5051978;28;20049;-90
2021/06/05 02:07:20;;;;;;;7.63;6.82;;;;;;;;;;5051922;28;20047;-89
2021/06/05 02:09:51;;;;;;;9.13;7.05;;;;;;;;;;5051903;28;20173;-90
2021/06/05 02:12:21;;;;;;;8.73;7.47;;;;;;;;;;5050846;28;20091;-89
2021/06/05 02:14:54;;;;;;;12.25;7.13;;;;;;;;;;5052157;28;20045;-88
2021/06/05 02:17:23;;;;;;;12.98;6.95;;;;;;;;;;5054623;28;20172;-89
2021/06/05 02:19:56;;;;;;;11.38;7.40;;;;;;;;;;5055807;28;20037;-88
2021/06/05 02:22:25;;;;;;;8.18;7.25;;;;;;;;;;5056276;28;20106;-90
2021/06/05 02:24:56;;;;;;;8.00;6.30;;;;;;;;;;5056026;28;20132;-89
2021/06/05 02:27:25;;;;;;;11.55;7.07;;;;;;;;;;5054865;28;20045;-90
2021/06/05 02:29:55;;;;;;;10.38;6.85;;;;;;;;;;5055753;28;20053;-90
2021/06/05 02:32:25;;;;;;;11.13;8.45;;;;;;;;;;5054939;28;20053;-88
2021/06/05 02:34:54;;;;;;;9.82;7.75;;;;;;;;;;5055381;28;20085;-89
2021/06/05 02:37:24;;;;;;;13.15;7.85;;;;;;;;;;5054376;28;20098;-87
2021/06/05 02:39:54;;;;;;;9.57;7.72;;;;;;;;;;5054384;28;20063;-89
2021/06/05 02:42:22;;;;;;;11.90;9.55;;;;;;;;;;5054474;28;20131;-89
2021/06/05 02:44:52;;;;;;;12.98;8.50;;;;;;;;;;5055922;28;20476;-88
2021/06/05 02:47:22;;;;;;;14.25;9.77;;;;;;;;;;5055666;28;20143;-88
2021/06/05 02:49:51;;;;;;;13.45;8.63;;;;;;;;;;5054898;28;20520;-89
2021/06/05 02:55:08;;;;;;;11.27;8.60;;;;;;;;;;5054374;28;20519;-87
2021/06/05 02:57:36;;;;;;;15.55;10.80;;;;;;;;;;5054700;28;20091;-90
2021/06/05 03:00:25;;;;;;;15.13;9.85;;;;;;;;;;5056170;28;20454;-89
2021/06/05 03:02:55;;;;;;;15.18;10.48;;;;;;;;;;5056100;28;20051;-88
2021/06/05 03:05:24;;;;;;;14.90;11.35;;;;;;;;;;5055014;28;20049;-89
2021/06/05 03:07:53;;;;;;;16.67;11.55;;;;;;;;;;5054733;28;20076;-88
2021/06/05 03:10:22;;;;;;;14.98;11.63;;;;;;;;;;5040014;28;20129;-89
2021/06/05 03:12:51;;;;;;;17.67;11.43;;;;;;;;;;5035893;28;20085;-89
2021/06/05 03:15:27;;;;;;;13.52;10.13;;;;;;;;;;5032398;28;20409;-87
2021/06/05 03:17:56;;;;;;;14.82;10.70;;;;;;;;;;5033264;28;20081;-91
2021/06/05 03:20:26;;;;;;;16.13;11.82;;;;;;;;;;5034193;28;20140;-88
2021/06/05 03:22:56;;;;;;;19.65;11.75;;;;;;;;;;5043470;28;20049;-86
2021/06/05 03:25:25;;;;;;;19.08;13.35;;;;;;;;;;5053115;28;20098;-89
2021/06/05 03:27:54;;;;;;;19.73;14.02;;;;;;;;;;5065494;28;20049;-86
2021/06/05 03:30:23;;;;;;;17.10;12.45;;;;;;;;;;5074902;28;20045;-86
2021/06/05 03:32:51;;;;;;;17.95;12.57;;;;;;;;;;5073886;28;20141;-90
2021/06/05 03:35:22;;;;;;;19.65;12.68;;;;;;;;;;5072449;28;20052;-89
2021/06/05 03:37:50;;;;;;;17.27;12.07;;;;;;;;;;5072690;28;20045;-86
2021/06/05 03:40:20;;;;;;;19.00;12.50;;;;;;;;;;5060067;28;20036;-87
2021/06/05 03:42:48;;;;;;;16.65;12.80;;;;;;;;;;5052726;28;20132;-90
2021/06/05 03:45:17;;;;;;;16.58;11.27;;;;;;;;;;5053581;28;20490;-87
2021/06/05 03:47:46;;;;;;;16.38;12.05;;;;;;;;;;5047688;28;20045;-87
2021/06/05 03:50:15;;;;;;;17.40;11.50;;;;;;;;;;5037076;28;20052;-88
2021/06/05 03:52:45;;;;;;;16.02;11.30;;;;;;;;;;5053012;28;20099;-85
2021/06/05 03:55:13;;;;;;;13.23;10.10;;;;;;;;;;5052366;28;20051;-88
2021/06/05 03:57:41;;;;;;;18.48;10.43;;;;;;;;;;5051404;28;20080;-86
2021/06/05 04:00:10;;;;;;;16.60;10.13;;;;;;;;;;5052913;28;20048;-88
2021/06/05 04:02:39;;;;;;;15.88;10.10;;;;;;;;;;5051312;28;20044;-88
2021/06/05 04:05:08;;;;;;;13.35;9.40;;;;;;;;;;5052266;28;20492;-90
2021/06/05 04:07:38;;;;;;;13.82;10.68;;;;;;;;;;5051969;28;20049;-88
2021/06/05 04:10:09;;;;;;;13.65;9.00;;;;;;;;;;5052614;28;20057;-88
2021/06/05 04:12:37;;;;;;;12.50;9.27;;;;;;;;;;5052744;28;20124;-89
2021/06/05 04:15:10;;;;;;;11.70;8.60;;;;;;;;;;5051810;28;20069;-89
2021/06/05 04:17:38;;;;;;;12.60;8.35;;;;;;;;;;5051868;28;20057;-88
2021/06/05 04:20:07;;;;;;;13.88;9.23;;;;;;;;;;5053183;28;20049;-88
2021/06/05 04:22:35;;;;;;;14.82;8.85;;;;;;;;;;5054267;28;20067;-90
2021/06/05 04:25:04;;;;;;;11.60;7.85;;;;;;;;;;5035339;28;20536;-86
2021/06/05 04:27:33;;;;;;;11.15;7.45;;;;;;;;;;5052409;28;20195;-90
2021/06/05 04:30:01;;;;;;;12.55;7.28;;;;;;;;;;5037571;28;20075;-88
2021/06/05 04:32:29;;;;;;;11.15;7.60;;;;;;;;;;5051719;28;20072;-88
2021/06/05 04:34:58;;;;;;;10.57;6.68;;;;;;;;;;5053116;28;20052;-90
2021/06/05 04:37:27;;;;;;;8.93;7.07;;;;;;;;;;5052558;28;20049;-89
2021/06/05 04:39:56;;;;;;;11.75;7.43;;;;;;;;;;5053049;28;20053;-90
2021/06/05 04:42:24;;;;;;;9.02;6.07;;;;;;;;;;5053253;28;20096;-90
2021/06/05 04:44:53;;;;;;;7.30;6.53;;;;;;;;;;5053363;28;20131;-92
2021/06/05 04:47:22;;;;;;;8.40;5.72;;;;;;;;;;5051817;28;20073;-89
2021/06/05 04:49:50;;;;;;;11.45;6.63;;;;;;;;;;5053359;28;20048;-88
2021/06/05 04:52:18;;;;;;;8.25;6.07;;;;;;;;;;5052110;28;20514;-90
2021/06/05 04:54:47;;;;;;;9.93;6.25;;;;;;;;;;5052397;28;20140;-89
2021/06/05 04:57:15;;;;;;;9.25;6.85;;;;;;;;;;5052543;28;20475;-89
2021/06/05 04:59:45;;;;;;;10.50;6.93;;;;;;;;;;5052995;28;20118;-88
2021/06/05 05:02:15;;;;;;;11.65;6.63;;;;;;;;;;5051683;28;20063;-88
2021/06/05 05:04:43;;;;;;;15.18;7.00;;;;;;;;;;5051646;28;20067;-86
2021/06/05 05:07:12;;;;;;;11.90;7.40;;;;;;;;;;5051398;28;20063;-89
2021/06/05 05:09:40;;;;;;;12.25;7.72;;;;;;;;;;5051580;28;20132;-88
2021/06/05 05:12:09;;;;;;;9.20;7.53;;;;;;;;;;5050913;28;20053;-88
2021/06/05 05:14:37;;;;;;;11.38;6.95;;;;;;;;;;5051684;28;20049;-88
2021/06/05 05:17:06;;;;;;;9.82;6.07;;;;;;;;;;5050573;28;20057;-88
2021/06/05 05:19:36;;;;;;;9.52;6.43;;;;;;;;;;5047222;28;20037;-87
2021/06/05 05:22:04;;;;;;;10.63;6.10;;;;;;;;;;5042453;28;20051;-87
2021/06/05 05:24:32;;;;;;;7.30;5.40;;;;;;;;;;5050533;28;20045;-85
2021/06/05 05:27:00;;;;;;;7.90;5.75;;;;;;;;;;5050706;28;20110;-88
2021/06/05 05:29:28;;;;;;;6.78;5.65;;;;;;;;;;5051352;28;20052;-88
2021/06/05 05:31:59;;;;;;;7.55;5.30;;;;;;;;;;5051094;28;20063;-87
2021/06/05 05:34:28;;;;;;;5.97;4.75;;;;;;;;;;5052664;28;20061;-86
2021/06/05 05:36:57;;;;;;;7.20;5.25;;;;;;;;;;5050936;28;20068;-88
2021/06/05 05:39:25;;;;;;;7.85;4.35;;;;;;;;;;5050381;28;20148;-87
2021/06/05 05:41:54;;;;;;;11.05;5.85;;;;;;;;;;5051272;28;20049;-87
2021/06/05 05:44:22;;;;;;;6.93;4.50;;;;;;;;;;5051441;28;20114;-85
2021/06/05 05:46:50;;;;;;;7.32;3.72;;;;;;;;;;5050111;28;20138;-88
2021/06/05 05:49:18;;;;;;;6.18;4.20;;;;;;;;;;5052181;28;20401;-85
2021/06/05 05:51:46;;;;;;;6.13;3.83;;;;;;;;;;5039319;28;20140;-85
2021/06/05 05:54:16;;;;;;;8.63;3.75;;;;;;;;;;5035180;28;20367;-85
2021/06/05 05:56:44;;;;;;;4.15;3.38;;;;;;;;;;5051775;28;20405;-86
2021/06/05 05:59:15;;;;;;;5.82;3.70;;;;;;;;;;5054654;28;20045;-86
2021/06/05 06:01:44;;;;;;;7.57;3.50;;;;;;;;;;5055028;28;20048;-86
2021/06/05 06:04:12;;;;;;;5.28;3.22;;;;;;;;;;5054973;28;20037;-84
2021/06/05 06:06:39;;;;;;;6.80;3.17;;;;;;;;;;5053852;28;20073;-86
2021/06/05 06:09:08;;;;;;;6.25;3.38;;;;;;;;;;5054365;28;20073;-86
2021/06/05 06:11:42;;;;;;;5.53;3.10;;;;;;;;;;5054312;28;20049;-85
2021/06/05 06:14:10;;;;;;;5.80;3.55;;;;;;;;;;5054772;28;20052;-86
2021/06/05 06:16:38;;;;;;;4.28;3.13;;;;;;;;;;5054041;28;20492;-85
2021/06/05 06:19:06;;;;;;;5.07;2.92;;;;;;;;;;5054348;28;20072;-85
2021/06/05 06:21:34;;;;;;;6.57;2.53;;;;;;;;;;5054092;28;20088;-86
2021/06/05 06:24:02;;;;;;;5.90;2.75;;;;;;;;;;5054477;28;20437;-84
2021/06/05 06:26:31;;;;;;;6.35;2.50;;;;;;;;;;5053623;28;20056;-85
2021/06/05 06:29:08;;;;;;;3.25;2.15;;;;;;;;;;5054150;28;20136;-84
2021/06/05 06:31:36;;;;;;;3.65;2.10;;;;;;;;;;5054549;28;20053;-85
2021/06/05 06:34:04;;;;;;;6.65;2.30;;;;;;;;;;5053541;28;20049;-87
2021/06/05 06:36:32;;;;;;;4.05;2.10;;;;;;;;;;5052840;28;20079;-86
2021/06/05 06:39:01;;;;;;;3.65;1.85;;;;;;;;;;5053878;28;20156;-86
2021/06/05 06:41:29;;;;;;;2.95;2.03;;;;;;;;;;5053905;28;20048;-87
2021/06/05 06:43:59;;;;;;;3.95;2.20;;;;;;;;;;5053552;28;20052;-85
2021/06/05 06:46:29;;;;;;;6.80;2.45;;;;;;;;;;5052515;28;20041;-86
2021/06/05 06:48:58;;;;;;;5.82;2.13;;;;;;;;;;5053373;28;20048;-86
2021/06/05 06:51:27;;;;;;;2.67;1.67;;;;;;;;;;5053684;28;20096;-86
2021/06/05 06:53:55;;;;;;;3.38;2.15;;;;;;;;;;5053123;28;20041;-84
2021/06/05 06:56:23;;;;;;;4.00;1.70;;;;;;;;;;5053206;28;20045;-85
2021/06/05 06:58:51;;;;;;;4.88;1.50;;;;;;;;;;5052965;28;20045;-86
2021/06/05 07:01:19;;;;;;;2.60;1.38;;;;;;;;;;5052932;28;20131;-85
2021/06/05 07:03:49;;;;;;;2.85;1.70;;;;;;;;;;5053185;28;20048;-85
2021/06/05 07:06:17;;;;;;;3.83;1.80;;;;;;;;;;5052954;28;20107;-86
2021/06/05 07:08:46;;;;;;;3.08;1.60;;;;;;;;;;5053132;28;20570;-87
2021/06/05 07:11:15;;;;;;;1.90;1.50;;;;;;;;;;5053391;28;20053;-86
2021/06/05 07:13:43;;;;;;;3.30;1.50;;;;;;;;;;5053534;28;20127;-86
2021/06/05 07:16:11;;;;;;;4.05;1.70;;;;;;;;;;5053054;28;20048;-86
2021/06/05 07:18:40;;;;;;;6.40;1.58;;;;;;;;;;5053029;28;20072;-86
2021/06/05 07:21:10;;;;;;;2.72;1.80;;;;;;;;;;5053224;28;20488;-87
2021/06/05 07:23:38;;;;;;;1.73;1.40;;;;;;;;;;5053032;28;20136;-86
2021/06/05 07:26:08;;;;;;;1.48;1.25;;;;;;;;;;5053016;28;20128;-86
2021/06/05 07:28:38;;;;;;;3.72;1.65;;;;;;;;;;5052580;28;20095;-85
2021/06/05 07:31:07;;;;;;;2.38;1.30;;;;;;;;;;5033838;28;20515;-89
2021/06/05 07:33:35;;;;;;;1.55;1.30;;;;;;;;;;5055472;28;20071;-86
2021/06/05 07:36:04;;;;;;;4.07;1.35;;;;;;;;;;5052952;28;20171;-86
2021/06/05 07:38:33;;;;;;;3.35;1.40;;;;;;;;;;5052022;28;20057;-86
2021/06/05 07:41:01;;;;;;;6.20;1.20;;;;;;;;;;5053098;28;20049;-86
2021/06/05 07:43:30;;;;;;;2.85;1.50;;;;;;;;;;5052904;28;20052;-86
2021/06/05 07:45:58;;;;;;;2.13;1.23;;;;;;;;;;5052082;28;20401;-86
2021/06/05 07:48:28;;;;;;;3.67;1.52;;;;;;;;;;5051802;28;20497;-86
2021/06/05 07:51:00;;;;;;;2.90;1.35;;;;;;;;;;5052623;28;20126;-85
2021/06/05 07:53:28;;;;;;;1.48;1.15;;;;;;;;;;5052369;28;20049;-86
2021/06/05 07:55:57;;;;;;;3.30;1.48;;;;;;;;;;5052155;28;20128;-86
2021/06/05 07:58:25;;;;;;;5.22;1.75;;;;;;;;;;5051288;28;20080;-87
2021/06/05 08:00:53;;;;;;;5.18;1.85;;;;;;;;;;5052079;28;20128;-86
2021/06/05 08:03:21;;;;;;;5.57;1.52;;;;;;;;;;5052815;28;20057;-87
2021/06/05 08:05:49;;;;;;;2.60;1.40;;;;;;;;;;5052153;28;20041;-86
2021/06/05 08:08:17;;;;;;;2.22;1.33;;;;;;;;;;5052066;28;20049;-86
2021/06/05 08:10:45;;;;;;;3.53;1.10;;;;;;;;;;5051778;28;20045;-86
2021/06/05 08:13:14;;;;;;;4.32;1.38;;;;;;;;;;5050930;28;20102;-86
2021/06/05 08:15:44;;;;;;;3.83;1.55;;;;;;;;;;5051740;28;20136;-86
2021/06/05 08:18:12;;;;;;;6.47;1.27;;;;;;;;;;5051385;28;20076;-86
2021/06/05 08:20:42;;;;;;;2.75;1.40;;;;;;;;;;5032579;28;20129;-86
2021/06/05 08:23:11;;;;;;;2.85;1.40;;;;;;;;;;5032006;28;20059;-85
2021/06/05 08:25:39;;;;;;;6.60;1.15;;;;;;;;;;5031975;28;20077;-87
2021/06/05 08:28:08;;;;;;;4.32;1.42;;;;;;;;;;5035174;28;20099;-87
2021/06/05 08:30:38;;;;;;;4.72;1.30;;;;;;;;;;5051183;28;20049;-86
2021/06/05 08:33:07;;;;;;;3.22;1.65;;;;;;;;;;5051930;28;20057;-85
2021/06/05 08:35:35;;;;;;;5.03;1.52;;;;;;;;;;5051747;28;20147;-86
2021/06/05 08:38:04;;;;;;;4.47;1.30;;;;;;;;;;5050675;28;20128;-86
2021/06/05 08:40:55;;;;;;;2.13;1.30;;;;;;;;;;5051424;28;20055;-87
2021/06/05 08:43:33;;;;;;;3.70;1.73;;;;;;;;;;5052388;28;20084;-88
2021/06/05 08:46:04;;;;;;;4.30;1.15;;;;;;;;;;5051518;28;20595;-86
2021/06/05 08:48:32;;;;;;;2.10;1.50;;;;;;;;;;5051103;28;20049;-88
2021/06/05 08:51:04;;;;;;;2.17;1.23;;;;;;;;;;5051754;28;20452;-87
2021/06/05 08:53:32;;;;;;;2.92;1.35;;;;;;;;;;5052046;28;20053;-86
2021/06/05 08:56:01;;;;;;;2.75;1.20;;;;;;;;;;5050758;28;20046;-87
2021/06/05 08:58:32;;;;;;;1.85;1.23;;;;;;;;;;5051157;28;20045;-87
2021/06/05 09:01:12;;;;;;;2.25;1.40;;;;;;;;;;5051530;28;20071;-87
2021/06/05 09:03:41;;;;;;;3.33;1.00;;;;;;;;;;5051861;28;20060;-84
2021/06/05 09:06:12;;;;;;;5.70;1.65;;;;;;;;;;5050813;28;20511;-87
2021/06/05 09:08:40;;;;;;;3.42;1.27;;;;;;;;;;5043050;28;20085;-88
2021/06/05 09:11:12;;;;;;;4.10;1.15;;;;;;;;;;5032723;28;20049;-87
2021/06/05 09:13:40;;;;;;;6.22;1.30;;;;;;;;;;5032427;28;20057;-87
2021/06/05 09:16:35;;;;;;;4.28;1.10;;;;;;;;;;5030829;28;20115;-90
2021/06/05 09:19:05;;;;;;;1.20;1.10;;;;;;;;;;5035546;28;20049;-89
2021/06/05 09:21:34;;;;;;;2.95;1.30;;;;;;;;;;5053162;28;20055;-87
2021/06/05 09:24:20;;;;;;;2.45;1.25;;;;;;;;;;5051642;28;20071;-87
2021/06/05 09:26:48;;;;;;;2.42;1.20;;;;;;;;;;5031060;28;20073;-88
2021/06/05 09:29:17;;;;;;;2.92;1.10;;;;;;;;;;5031601;28;20080;-87
2021/06/05 09:32:01;;;;;;;1.42;1.10;;;;;;;;;;5031430;28;20092;-87
2021/06/05 09:34:32;;;;;;;1.80;1.20;;;;;;;;;;5012853;28;20093;-87
2021/06/05 09:37:01;;;;;;;2.50;1.40;;;;;;;;;;5041572;28;20052;-87
2021/06/05 09:39:37;;;;;;;1.20;0.98;;;;;;;;;;5050175;28;20076;-86
2021/06/05 09:42:05;;;;;;;3.13;1.08;;;;;;;;;;5050871;28;20079;-86
2021/06/05 09:44:40;;;;;;;2.13;1.20;;;;;;;;;;5051021;28;20559;-89
2021/06/05 09:47:20;;;;;;;2.75;1.00;;;;;;;;;;5050261;28;20041;-86
2021/06/05 09:49:50;;;;;;;1.02;0.75;;;;;;;;;;5050711;28;20488;-86
2021/06/05 09:52:29;;;;;;;2.10;1.30;;;;;;;;;;5030311;28;20477;-88
2021/06/05 09:54:58;;;;;;;1.45;0.90;;;;;;;;;;5049117;28;20048;-88
2021/06/05 09:57:36;;;;;;;1.25;0.70;;;;;;;;;;5049715;28;20071;-86
2021/06/05 10:00:10;;;;;;;1.85;0.80;;;;;;;;;;5050533;28;20147;-86
2021/06/05 10:02:41;;;;;;;3.35;0.80;;;;;;;;;;5050876;28;20092;-87
2021/06/05 10:05:11;;;;;;;1.20;0.70;;;;;;;;;;5050834;28;20131;-88
2021/06/05 10:07:39;;;;;;;1.02;0.60;;;;;;;;;;5050247;28;20128;-87
2021/06/05 10:10:12;;;;;;;1.55;0.80;;;;;;;;;;5050174;28;20441;-86
2021/06/05 10:12:41;;;;;;;1.70;0.73;;;;;;;;;;5049967;28;20117;-86
2021/06/05 10:15:11;;;;;;;1.52;0.93;;;;;;;;;;5050794;28;20081;-88
2021/06/05 10:17:45;;;;;;;1.60;0.60;;;;;;;;;;5049639;28;20084;-86
2021/06/05 10:20:28;;;;;;;3.67;0.75;;;;;;;;;;5050463;28;20207;-87
2021/06/05 10:22:58;;;;;;;1.17;0.50;;;;;;;;;;5048595;28;20088;-85
2021/06/05 10:25:30;;;;;;;1.80;0.95;;;;;;;;;;5050435;28;20069;-86
2021/06/05 10:28:01;;;;;;;2.00;0.77;;;;;;;;;;5049568;28;20068;-88
2021/06/05 10:30:32;;;;;;;2.17;0.60;;;;;;;;;;5038380;28;20049;-86
2021/06/05 10:33:04;;;;;;;1.58;0.70;;;;;;;;;;5029956;28;20144;-85
2021/06/05 10:35:36;;;;;;;1.73;0.50;;;;;;;;;;5034383;28;20044;-88
2021/06/05 10:38:06;;;;;;;1.50;0.70;;;;;;;;;;5053515;28;20468;-86
2021/06/05 10:40:34;;;;;;;0.82;0.57;;;;;;;;;;5053333;28;20045;-87
2021/06/05 10:43:05;;;;;;;2.08;0.90;;;;;;;;;;5053567;28;20080;-86
2021/06/05 10:45:34;;;;;;;3.20;0.55;;;;;;;;;;5054111;28;20067;-87
2021/06/05 10:48:06;;;;;;;1.58;0.60;;;;;;;;;;5053169;28;20048;-87
2021/06/05 10:50:36;;;;;;;2.45;0.70;;;;;;;;;;5054562;28;20051;-86
2021/06/05 10:53:07;;;;;;;0.50;0.50;;;;;;;;;;5055136;28;20052;-88
2021/06/05 10:55:39;;;;;;;1.35;0.70;;;;;;;;;;5056209;28;20076;-87
2021/06/05 10:58:19;;;;;;;1.42;0.60;;;;;;;;;;5056708;28;20084;-87
2021/06/05 11:00:48;;;;;;;2.65;1.13;;;;;;;;;;5054372;28;20077;-88
2021/06/05 11:03:35;;;;;;;2.35;0.60;;;;;;;;;;5054013;28;20053;-87
2021/06/05 11:06:08;;;;;;;1.40;0.65;;;;;;;;;;5053730;28;20059;-86
2021/06/05 11:08:40;;;;;;;1.00;0.65;;;;;;;;;;5050835;28;20156;-89
2021/06/05 11:11:16;;;;;;;0.90;0.60;;;;;;;;;;5052516;28;20048;-87
2021/06/05 11:13:51;;;;;;;1.02;0.65;;;;;;;;;;5053494;28;20465;-87
2021/06/05 11:16:20;;;;;;;1.58;0.68;;;;;;;;;;5053449;28;20397;-87
2021/06/05 11:18:49;;;;;;;2.22;0.60;;;;;;;;;;5049575;28;20128;-86
2021/06/05 11:21:39;;;;;;;2.65;0.90;;;;;;;;;;5033353;28;20151;-86
2021/06/05 11:24:19;;;;;;;4.05;0.70;;;;;;;;;;5033174;28;20501;-86
2021/06/05 11:26:49;;;;;;;3.85;1.00;;;;;;;;;;5051665;28;20447;-86
2021/06/05 11:29:36;;;;;;;6.22;0.80;;;;;;;;;;5052833;28;20087;-85
2021/06/05 11:32:23;;;;;;;3.97;0.88;;;;;;;;;;5052824;28;20072;-86
2021/06/05 11:34:53;;;;;;;3.35;0.85;;;;;;;;;;5052522;28;20128;-86
2021/06/05 11:37:39;;;;;;;1.92;0.90;;;;;;;;;;5052112;28;20645;-85
2021/06/05 11:40:10;;;;;;;2.25;0.93;;;;;;;;;;5052250;28;20052;-85
2021/06/05 11:42:56;;;;;;;1.45;0.70;;;;;;;;;;5052850;28;20146;-86
2021/06/05 11:45:32;;;;;;;1.60;0.70;;;;;;;;;;5050200;28;20171;-85
2021/06/05 11:47:59;;;;;;;1.25;0.93;;;;;;;;;;5046637;28;20059;-87
2021/06/05 11:50:32;;;;;;;1.10;0.90;;;;;;;;;;5052605;28;20045;-86
2021/06/05 11:53:14;;;;;;;1.42;0.70;;;;;;;;;;5052177;28;20075;-87
2021/06/05 11:55:45;;;;;;;1.58;0.90;;;;;;;;;;5051602;28;20136;-84
2021/06/05 11:58:16;;;;;;;1.90;0.98;;;;;;;;;;5051983;28;20083;-86
2021/06/05 12:00:45;;;;;;;1.77;0.82;;;;;;;;;;5052951;28;20045;-87
2021/06/05 12:03:23;;;;;;;3.22;0.80;;;;;;;;;;5052484;28;20045;-88
2021/06/05 12:05:51;;;;;;;3.88;1.10;;;;;;;;;;5052384;28;20041;-85
2021/06/05 12:08:21;;;;;;;1.20;0.73;;;;;;;;;;5051734;28;20045;-86
2021/06/05 12:10:52;;;;;;;2.05;0.70;;;;;;;;;;5050196;28;20467;-88
2021/06/05 12:13:26;;;;;;;1.73;0.70;;;;;;;;;;5051283;28;20117;-86
2021/06/05 12:15:55;;;;;;;2.80;1.00;;;;;;;;;;5052439;28;20072;-86
2021/06/05 12:18:25;;;;;;;1.15;0.65;;;;;;;;;;5052048;28;20498;-85
2021/06/05 12:20:55;;;;;;;3.03;1.25;;;;;;;;;;5052810;28;20041;-89
2021/06/05 12:23:25;;;;;;;2.33;1.25;;;;;;;;;;5052986;28;20049;-88
2021/06/05 12:26:00;;;;;;;1.30;0.65;;;;;;;;;;5052951;28;20056;-86
2021/06/05 12:28:30;;;;;;;1.20;0.80;;;;;;;;;;5051248;28;20131;-86
2021/06/05 12:31:09;;;;;;;3.60;0.90;;;;;;;;;;5051536;28;20469;-87
2021/06/05 12:33:38;;;;;;;2.03;1.02;;;;;;;;;;5051298;28;20504;-88
2021/06/05 12:36:16;;;;;;;1.30;1.00;;;;;;;;;;5052281;28;20140;-88
2021/06/05 12:38:50;;;;;;;2.90;1.15;;;;;;;;;;3672720;28;10023352;-87
2021/06/05 12:41:24;;;;;;;2.47;0.90;;;;;;;;;;2427956;28;10002073;-86
2021/06/05 12:43:52;;;;;;;1.20;0.93;;;;;;;;;;5041816;28;20164;-87
2021/06/05 12:46:21;;;;;;;1.73;0.93;;;;;;;;;;5051016;28;20048;-88
2021/06/05 12:48:51;;;;;;;3.53;0.90;;;;;;;;;;5051703;28;20053;-86
2021/06/05 12:51:23;;;;;;;2.28;1.08;;;;;;;;;;5050849;28;20136;-86
2021/06/05 12:53:58;;;;;;;3.55;1.25;;;;;;;;;;5051406;28;20166;-86
2021/06/05 12:56:36;;;;;;;5.32;1.10;;;;;;;;;;5051574;28;20072;-87
2021/06/05 12:59:06;;;;;;;2.88;1.00;;;;;;;;;;5050855;28;20346;-86
2021/06/05 13:01:36;;;;;;;1.63;1.00;;;;;;;;;;5051484;28;20131;-88
2021/06/05 13:04:06;;;;;;;4.28;0.90;;;;;;;;;;5051729;28;20060;-85
2021/06/05 13:06:35;;;;;;;2.03;1.17;;;;;;;;;;5051240;28;20052;-86
2021/06/05 13:09:22;;;;;;;2.00;0.68;;;;;;;;;;5051280;28;20069;-86
2021/06/05 13:11:53;;;;;;;2.65;1.10;;;;;;;;;;5051755;28;20107;-86
2021/06/05 13:14:23;;;;;;;1.73;1.00;;;;;;;;;;5051493;28;20044;-87
2021/06/05 13:17:06;;;;;;;1.77;0.90;;;;;;;;;;5050923;28;20049;-86
2021/06/05 13:19:34;;;;;;;2.65;0.95;;;;;;;;;;5050961;28;20064;-85
2021/06/05 13:22:04;;;;;;;2.65;1.10;;;;;;;;;;5051910;28;20081;-87
2021/06/05 13:24:31;;;;;;;2.67;1.10;;;;;;;;;;5051453;28;20092;-85
2021/06/05 13:27:22;;;;;;;2.90;1.00;;;;;;;;;;5050370;28;20055;-86
2021/06/05 13:29:50;;;;;;;2.05;0.90;;;;;;;;;;5050788;28;20167;-88
2021/06/05 13:32:37;;;;;;;1.55;0.80;;;;;;;;;;5046204;28;20053;-87
2021/06/05 13:35:06;;;;;;;1.58;0.80;;;;;;;;;;5051635;28;20114;-87
2021/06/05 13:37:35;;;;;;;1.30;0.70;;;;;;;;;;5051426;28;20094;-86
2021/06/05 13:40:05;;;;;;;2.22;1.15;;;;;;;;;;5049852;28;20084;-87
2021/06/05 13:42:36;;;;;;;2.95;1.00;;;;;;;;;;5031701;28;20053;-86
2021/06/05 13:45:05;;;;;;;1.95;0.98;;;;;;;;;;5031126;28;20050;-86
2021/06/05 13:47:33;;;;;;;2.83;1.17;;;;;;;;;;5042784;28;20044;-86
2021/06/05 13:50:01;;;;;;;1.95;1.10;;;;;;;;;;5050779;28;20420;-85
2021/06/05 13:52:30;;;;;;;1.13;0.80;;;;;;;;;;5050748;28;20080;-86
2021/06/05 13:54:59;;;;;;;1.85;0.82;;;;;;;;;;5051298;28;20132;-87
2021/06/05 13:57:28;;;;;;;3.45;0.70;;;;;;;;;;5051063;28;20064;-88
2021/06/05 13:59:59;;;;;;;2.88;0.90;;;;;;;;;;5050729;28;20049;-86
2021/06/05 14:02:27;;;;;;;4.00;0.90;;;;;;;;;;5048268;28;20095;-87
2021/06/05 14:04:55;;;;;;;2.85;0.90;;;;;;;;;;5051416;28;20512;-87
2021/06/05 14:07:24;;;;;;;1.73;0.82;;;;;;;;;;5050700;28;20146;-87
2021/06/05 14:09:53;;;;;;;1.15;0.75;;;;;;;;;;5053109;28;20083;-86
2021/06/05 14:12:23;;;;;;;3.50;0.70;;;;;;;;;;5056151;28;20070;-88
2021/06/05 14:14:51;;;;;;;6.63;1.48;;;;;;;;;;5056105;28;20056;-88
2021/06/05 14:17:22;;;;;;;1.55;1.05;;;;;;;;;;5054339;28;20103;-87
2021/06/05 14:19:50;;;;;;;1.25;0.80;;;;;;;;;;5051100;28;20067;-86
2021/06/05 14:22:18;;;;;;;1.17;0.73;;;;;;;;;;5055042;28;20119;-87
2021/06/05 14:24:47;;;;;;;1.73;0.80;;;;;;;;;;5053453;28;20128;-88
2021/06/05 14:27:15;;;;;;;1.77;0.65;;;;;;;;;;5052697;28;20056;-87
2021/06/05 14:29:44;;;;;;;2.95;1.00;;;;;;;;;;5051263;28;20405;-88
2021/06/05 14:32:12;;;;;;;2.72;0.90;;;;;;;;;;5056460;28;20585;-90
2021/06/05 14:34:41;;;;;;;1.77;0.93;;;;;;;;;;5051244;28;20436;-86
2021/06/05 14:37:09;;;;;;;4.68;1.20;;;;;;;;;;5052811;28;20041;-87
2021/06/05 14:39:37;;;;;;;3.33;1.33;;;;;;;;;;5051637;28;20128;-87
2021/06/05 14:42:06;;;;;;;2.58;1.00;;;;;;;;;;5054915;28;20588;-86
2021/06/05 14:44:36;;;;;;;3.95;1.20;;;;;;;;;;5043488;28;20129;-86
2021/06/05 14:47:04;;;;;;;1.25;1.00;;;;;;;;;;5061566;28;20080;-90
2021/06/05 14:49:33;;;;;;;1.30;0.85;;;;;;;;;;5055663;28;20052;-86
2021/06/05 14:52:02;;;;;;;4.00;1.40;;;;;;;;;;5073593;28;20519;-86
2021/06/05 14:54:30;;;;;;;2.50;1.20;;;;;;;;;;5072399;28;20080;-87
2021/06/05 14:56:58;;;;;;;1.60;1.20;;;;;;;;;;5065333;28;20047;-87
2021/06/05 14:59:26;;;;;;;3.10;1.30;;;;;;;;;;5056040;28;20056;-85
2021/06/05 15:01:55;;;;;;;1.52;1.00;;;;;;;;;;5054617;28;20655;-86